createdAt,value
2022-12-04T00:00:15.909Z,14.85
2022-12-04T00:02:47.915Z,15.85
2022-12-04T00:05:20.130Z,15.00
2022-12-04T00:07:53.582Z,17.63
2022-12-04T00:10:26.312Z,16.65
2022-12-04T00:12:58.809Z,16.95
2022-12-04T00:15:31.115Z,15.10
2022-12-04T00:18:03.162Z,15.27
2022-12-04T00:20:35.573Z,15.25
2022-12-04T00:23:09.406Z,14.57
2022-12-04T00:25:41.727Z,15.25
2022-12-04T00:28:13.781Z,16.58
2022-12-04T00:30:46.544Z,15.55
2022-12-04T00:33:18.632Z,13.10
2022-12-04T00:35:57.180Z,16.70
2022-12-04T00:38:30.623Z,15.75
2022-12-04T00:41:02.680Z,15.80
2022-12-04T00:43:34.627Z,16.85
2022-12-04T00:46:06.972Z,15.98
2022-12-04T00:48:39.070Z,15.38
2022-12-04T00:51:14.214Z,17.25
2022-12-04T00:53:47.769Z,14.10
2022-12-04T00:56:22.368Z,14.82
2022-12-04T00:58:55.248Z,14.73
2022-12-04T01:01:29.111Z,14.30
2022-12-04T01:04:01.121Z,15.52
2022-12-04T01:06:34.733Z,15.82
2022-12-04T01:09:08.249Z,13.63
2022-12-04T01:11:40.238Z,15.63
2022-12-04T01:14:12.367Z,15.13
2022-12-04T01:16:44.693Z,15.82
2022-12-04T01:19:16.664Z,14.30
2022-12-04T01:21:48.714Z,16.50
2022-12-04T01:24:22.035Z,13.85
2022-12-04T01:26:54.008Z,15.25
2022-12-04T01:29:25.979Z,14.38
2022-12-04T01:31:58.019Z,14.27
2022-12-04T01:34:30.023Z,16.95
2022-12-04T01:37:02.042Z,14.60
2022-12-04T01:39:37.824Z,16.85
2022-12-04T01:42:12.731Z,16.42
2022-12-04T01:45:23.103Z,17.15
2022-12-04T01:47:59.299Z,16.00
2022-12-04T01:50:31.295Z,17.77
2022-12-04T01:53:03.336Z,16.88
2022-12-04T01:55:37.047Z,16.73
2022-12-04T01:58:09.896Z,12.85
2022-12-04T02:00:42.236Z,14.57
2022-12-04T02:03:15.143Z,12.82
2022-12-04T02:05:47.181Z,14.13
2022-12-04T02:08:19.421Z,13.50
2022-12-04T02:11:05.006Z,15.13
2022-12-04T02:13:42.409Z,13.75
2022-12-04T02:16:19.923Z,14.35
2022-12-04T02:18:59.342Z,15.80
2022-12-04T02:21:36.370Z,15.43
2022-12-04T02:24:37.618Z,14.57
2022-12-04T02:27:21.510Z,14.40
2022-12-04T02:29:59.815Z,13.77
2022-12-04T02:32:40.013Z,13.45
2022-12-04T02:37:50.649Z,13.55
2022-12-04T02:40:26.708Z,12.98
2022-12-04T02:43:01.187Z,15.05
2022-12-04T02:45:41.058Z,14.90
2022-12-04T02:48:18.482Z,13.85
2022-12-04T02:50:54.981Z,14.20
2022-12-04T02:53:30.744Z,14.00
2022-12-04T02:56:08.164Z,14.27
2022-12-04T02:58:44.692Z,14.65
2022-12-04T03:01:21.467Z,15.80
2022-12-04T03:03:58.820Z,15.02
2022-12-04T03:06:36.181Z,14.10
2022-12-04T03:09:12.031Z,14.35
2022-12-04T03:11:49.862Z,14.45
2022-12-04T03:14:24.657Z,13.93
2022-12-04T03:17:04.114Z,15.25
2022-12-04T03:19:41.817Z,10.18
2022-12-04T03:22:18.704Z,14.18
2022-12-04T03:24:52.879Z,14.45
2022-12-04T03:27:32.418Z,13.35
2022-12-04T03:30:06.855Z,12.98
2022-12-04T03:32:50.064Z,16.25
2022-12-04T03:35:25.156Z,20.13
2022-12-04T03:38:02.043Z,21.20
2022-12-04T03:40:38.084Z,26.55
2022-12-04T03:43:16.796Z,21.00
2022-12-04T03:45:54.732Z,18.02
2022-12-04T03:48:37.273Z,21.90
2022-12-04T03:51:17.981Z,15.35
2022-12-04T03:53:54.895Z,17.35
2022-12-04T03:56:30.559Z,16.20
2022-12-04T03:59:07.477Z,15.43
2022-12-04T04:01:45.933Z,15.88
2022-12-04T04:04:24.846Z,14.82
2022-12-04T04:07:02.391Z,15.95
2022-12-04T04:09:38.983Z,14.70
2022-12-04T04:12:15.181Z,15.93
2022-12-04T04:15:11.472Z,15.05
2022-12-04T04:18:05.369Z,15.55
2022-12-04T04:21:02.020Z,16.52
2022-12-04T04:23:57.899Z,16.25
2022-12-04T04:26:35.209Z,14.65
2022-12-04T04:29:08.349Z,14.18
2022-12-04T04:31:44.371Z,16.00
2022-12-04T04:34:22.230Z,14.95
2022-12-04T04:37:02.613Z,14.90
2022-12-04T04:39:40.668Z,16.38
2022-12-04T04:42:19.306Z,13.32
2022-12-04T04:44:57.254Z,14.35
2022-12-04T04:47:34.522Z,14.63
2022-12-04T04:50:09.436Z,15.43
2022-12-04T04:52:50.826Z,14.38
2022-12-04T04:55:24.011Z,15.15
2022-12-04T04:58:06.920Z,14.63
2022-12-04T05:00:39.973Z,14.70
2022-12-04T05:03:11.985Z,14.38
2022-12-04T05:05:44.008Z,14.95
2022-12-04T05:08:17.463Z,14.70
2022-12-04T05:10:49.566Z,15.48
2022-12-04T05:13:21.786Z,17.00
2022-12-04T05:15:57.648Z,15.85
2022-12-04T05:18:30.110Z,17.25
2022-12-04T05:21:05.746Z,17.35
2022-12-04T05:23:39.134Z,15.95
2022-12-04T05:26:11.598Z,17.08
2022-12-04T05:28:43.556Z,15.98
2022-12-04T05:31:15.785Z,16.70
2022-12-04T05:33:47.767Z,16.08
2022-12-04T05:36:19.774Z,16.85
2022-12-04T05:38:53.163Z,16.98
2022-12-04T05:41:25.143Z,18.30
2022-12-04T05:43:57.088Z,16.75
2022-12-04T05:46:29.098Z,15.80
2022-12-04T05:49:01.112Z,16.75
2022-12-04T05:51:33.095Z,18.75
2022-12-04T05:54:06.460Z,18.58
2022-12-04T05:56:38.441Z,15.25
2022-12-04T05:59:10.396Z,17.77
2022-12-04T06:01:42.566Z,16.40
2022-12-04T06:04:14.599Z,15.55
2022-12-04T06:06:46.598Z,16.98
2022-12-04T06:09:20.002Z,15.68
2022-12-04T06:11:51.961Z,16.98
2022-12-04T06:14:24.001Z,17.48
2022-12-04T06:16:56.144Z,15.77
2022-12-04T06:19:28.239Z,16.20
2022-12-04T06:22:00.200Z,16.02
2022-12-04T06:24:33.522Z,15.25
2022-12-04T06:27:27.779Z,17.50
2022-12-04T06:29:58.879Z,15.60
2022-12-04T06:32:31.046Z,18.15
2022-12-04T06:35:03.060Z,19.75
2022-12-04T06:37:35.254Z,17.88
2022-12-04T06:40:09.681Z,19.42
2022-12-04T06:42:41.655Z,16.42
2022-12-04T06:45:13.586Z,20.02
2022-12-04T06:47:45.681Z,20.55
2022-12-04T06:50:17.899Z,19.55
2022-12-04T06:52:49.865Z,17.23
2022-12-04T06:55:23.228Z,15.85
2022-12-04T06:57:55.180Z,16.67
2022-12-04T07:00:27.352Z,16.95
2022-12-04T07:02:59.317Z,16.65
2022-12-04T07:05:31.268Z,17.33
2022-12-04T07:08:03.360Z,15.48
2022-12-04T07:10:37.103Z,16.73
2022-12-04T07:13:09.405Z,17.20
2022-12-04T07:15:41.558Z,16.90
2022-12-04T07:18:13.527Z,18.77
2022-12-04T07:20:45.485Z,15.23
2022-12-04T07:23:17.465Z,15.60
2022-12-04T07:25:51.106Z,18.13
2022-12-04T07:28:23.166Z,18.42
2022-12-04T07:30:55.140Z,18.80
2022-12-04T07:33:27.152Z,18.77
2022-12-04T07:36:00.309Z,21.98
2022-12-04T07:38:34.922Z,18.90
2022-12-04T07:41:10.833Z,19.52
2022-12-04T07:43:43.079Z,18.65
2022-12-04T07:46:17.622Z,23.48
2022-12-04T07:48:49.780Z,19.10
2022-12-04T07:51:24.403Z,19.35
2022-12-04T07:54:02.231Z,20.08
2022-12-04T07:56:36.422Z,17.83
2022-12-04T07:59:08.399Z,17.50
2022-12-04T08:01:40.545Z,17.92
2022-12-04T08:04:12.777Z,17.17
2022-12-04T08:06:44.868Z,21.45
2022-12-04T08:09:16.824Z,18.05
2022-12-04T08:11:50.184Z,18.15
2022-12-04T08:14:22.249Z,16.92
2022-12-04T08:16:54.294Z,16.33
2022-12-04T08:19:26.396Z,15.18
2022-12-04T08:21:58.376Z,16.88
2022-12-04T08:24:30.648Z,15.00
2022-12-04T08:27:04.505Z,16.65
2022-12-04T08:29:37.383Z,16.02
2022-12-04T08:32:09.494Z,17.02
2022-12-04T08:34:41.542Z,14.52
2022-12-04T08:37:13.581Z,15.35
2022-12-04T08:39:45.700Z,17.75
2022-12-04T08:42:19.157Z,15.85
2022-12-04T08:44:51.183Z,15.98
2022-12-04T08:47:23.210Z,17.83
2022-12-04T08:49:55.443Z,18.80
2022-12-04T08:52:27.679Z,16.17
2022-12-04T08:54:59.732Z,14.98
2022-12-04T08:57:33.111Z,14.85
2022-12-04T09:00:06.656Z,16.27
2022-12-04T09:02:38.739Z,19.02
2022-12-04T09:05:10.758Z,21.20
2022-12-04T09:07:42.896Z,20.33
2022-12-04T09:10:15.110Z,21.13
2022-12-04T09:12:48.657Z,18.00
2022-12-04T09:15:20.745Z,14.65
2022-12-04T09:17:52.753Z,15.65
2022-12-04T09:20:24.944Z,18.08
2022-12-04T09:23:05.227Z,14.90
2022-12-04T09:25:37.984Z,17.85
2022-12-04T09:28:11.348Z,16.52
2022-12-04T09:30:43.389Z,17.08
2022-12-04T09:33:15.461Z,17.75
2022-12-04T09:35:47.453Z,17.40
2022-12-04T09:38:19.662Z,19.33
2022-12-04T09:41:02.456Z,25.70
2022-12-04T09:43:46.829Z,18.10
2022-12-04T09:46:24.391Z,16.58
2022-12-04T09:49:01.885Z,16.48
2022-12-04T09:51:38.491Z,18.27
2022-12-04T09:54:17.101Z,19.83
2022-12-04T09:57:01.485Z,18.67
2022-12-04T09:59:35.028Z,16.90
2022-12-04T10:02:22.909Z,18.65
2022-12-04T10:04:55.956Z,19.10
2022-12-04T10:07:35.484Z,20.58
2022-12-04T10:10:18.398Z,20.23
2022-12-04T10:12:57.084Z,21.15
2022-12-04T10:15:34.963Z,17.95
2022-12-04T10:18:22.660Z,18.27
2022-12-04T10:21:06.703Z,18.23
2022-12-04T10:23:50.410Z,17.27
2022-12-04T10:26:28.357Z,18.55
2022-12-04T10:29:04.335Z,19.58
2022-12-04T10:31:40.277Z,19.70
2022-12-04T10:34:16.931Z,17.83
2022-12-04T10:36:52.902Z,21.35
2022-12-04T10:39:28.398Z,20.98
2022-12-04T10:42:06.295Z,23.27
2022-12-04T10:44:39.037Z,20.27
2022-12-04T10:47:14.145Z,24.63
2022-12-04T10:49:46.132Z,21.67
2022-12-04T10:52:18.489Z,23.23
2022-12-04T10:54:55.079Z,24.55
2022-12-04T10:57:36.672Z,31.50
2022-12-04T11:00:28.300Z,25.95
2022-12-04T11:03:04.238Z,22.27
2022-12-04T11:05:42.174Z,22.42
2022-12-04T11:08:26.858Z,27.77
2022-12-04T11:11:01.796Z,24.05
2022-12-04T11:13:34.575Z,21.65
2022-12-04T11:16:07.758Z,22.00
2022-12-04T11:18:50.424Z,21.40
2022-12-04T11:21:26.189Z,22.95
2022-12-04T11:23:58.825Z,27.98
2022-12-04T11:26:33.950Z,24.85
2022-12-04T11:29:07.589Z,23.83
2022-12-04T11:31:40.616Z,25.63
2022-12-04T11:34:20.068Z,23.30
2022-12-04T11:36:55.810Z,27.73
2022-12-04T11:39:32.845Z,24.33
2022-12-04T11:42:14.734Z,39.67
2022-12-04T11:44:52.476Z,42.38
2022-12-04T11:47:26.829Z,38.15
2022-12-04T11:50:13.689Z,22.83
2022-12-04T11:53:00.017Z,21.70
2022-12-04T11:55:38.866Z,30.35
2022-12-04T11:58:29.531Z,26.27
2022-12-04T12:01:18.113Z,20.10
2022-12-04T12:04:05.277Z,20.38
2022-12-04T12:06:48.804Z,21.13
2022-12-04T12:09:32.687Z,21.38
2022-12-04T12:12:10.704Z,24.85
2022-12-04T12:14:56.735Z,21.02
2022-12-04T12:17:37.363Z,20.05
2022-12-04T12:20:19.930Z,20.50
2022-12-04T12:23:11.822Z,17.55
2022-12-04T12:29:04.824Z,19.55
2022-12-04T12:32:10.788Z,20.90
2022-12-04T12:34:45.524Z,17.45
2022-12-04T12:37:23.739Z,20.35
2022-12-04T12:40:05.361Z,21.15
2022-12-04T12:42:43.920Z,19.13
2022-12-04T12:45:24.139Z,18.23
2022-12-04T12:48:04.145Z,18.88
2022-12-04T12:50:44.204Z,19.00
2022-12-04T12:53:21.977Z,19.45
2022-12-04T12:55:57.452Z,21.98
2022-12-04T12:58:34.359Z,19.63
2022-12-04T13:01:13.383Z,20.52
2022-12-04T13:03:52.346Z,21.17
2022-12-04T13:06:31.169Z,23.50
2022-12-04T13:09:08.000Z,20.83
2022-12-04T13:11:43.868Z,19.85
2022-12-04T13:14:16.014Z,20.25
2022-12-04T13:16:52.545Z,20.95
2022-12-04T13:19:29.626Z,21.33
2022-12-04T13:22:16.251Z,23.23
2022-12-04T13:24:59.491Z,22.23
2022-12-04T13:27:45.749Z,21.95
2022-12-04T13:30:20.797Z,23.42
2022-12-04T13:33:20.378Z,20.83
2022-12-04T13:36:14.610Z,18.60
2022-12-04T13:39:01.933Z,19.92
2022-12-04T13:41:39.282Z,19.45
2022-12-04T13:44:21.808Z,17.77
2022-12-04T13:46:58.514Z,25.23
2022-12-04T13:49:32.655Z,28.83
2022-12-04T13:52:06.898Z,23.15
2022-12-04T13:54:38.849Z,19.63
2022-12-04T13:57:19.896Z,20.33
2022-12-04T14:00:04.284Z,19.17
2022-12-04T14:02:51.251Z,19.92
2022-12-04T14:05:29.458Z,21.38
2022-12-04T14:08:07.505Z,23.23
2022-12-04T14:10:40.129Z,23.08
2022-12-04T14:13:19.849Z,23.58
2022-12-04T14:16:03.942Z,20.52
2022-12-04T14:18:36.203Z,24.70
2022-12-04T14:21:08.152Z,42.33
2022-12-04T14:23:41.787Z,28.90
2022-12-04T14:26:22.103Z,25.15
2022-12-04T14:31:40.670Z,27.65
2022-12-04T14:34:22.667Z,29.38
2022-12-04T14:36:56.392Z,27.55
2022-12-04T14:39:31.887Z,27.65
2022-12-04T14:42:12.842Z,29.50
2022-12-04T14:44:46.145Z,26.70
2022-12-04T14:47:29.603Z,28.15
2022-12-04T14:50:16.598Z,37.17
2022-12-04T14:52:54.710Z,26.05
2022-12-04T14:55:35.742Z,28.65
2022-12-04T14:58:31.174Z,34.30
2022-12-04T15:01:06.280Z,30.90
2022-12-04T15:03:45.007Z,32.75
2022-12-04T15:06:22.023Z,27.90
2022-12-04T15:09:14.061Z,31.58
2022-12-04T15:12:06.308Z,26.92
2022-12-04T15:14:42.399Z,24.25
2022-12-04T15:17:16.247Z,39.65
2022-12-04T15:19:49.576Z,26.35
2022-12-04T15:22:23.948Z,31.02
2022-12-04T15:24:56.471Z,29.95
2022-12-04T15:27:32.625Z,37.78
2022-12-04T15:30:06.555Z,23.60
2022-12-04T15:32:38.653Z,21.77
2022-12-04T15:35:22.731Z,22.77
2022-12-04T15:37:55.256Z,20.58
2022-12-04T15:40:30.033Z,19.33
2022-12-04T15:43:16.981Z,19.75
2022-12-04T15:45:49.202Z,20.30
2022-12-04T15:48:28.729Z,20.65
2022-12-04T15:51:06.200Z,20.45
2022-12-04T15:53:40.350Z,23.50
2022-12-04T15:56:18.104Z,18.80
2022-12-04T15:58:56.328Z,20.60
2022-12-04T16:01:38.773Z,19.27
2022-12-04T16:04:20.765Z,23.88
2022-12-04T16:06:54.057Z,22.73
2022-12-04T16:09:27.923Z,24.38
2022-12-04T16:12:02.170Z,21.40
2022-12-04T16:14:34.090Z,25.45
2022-12-04T16:17:06.726Z,21.63
2022-12-04T16:19:41.132Z,20.63
2022-12-04T16:22:19.420Z,20.75
2022-12-04T16:24:52.769Z,22.77
2022-12-04T16:27:25.868Z,21.23
2022-12-04T16:29:57.900Z,21.13
2022-12-04T16:32:32.754Z,22.17
2022-12-04T16:35:06.493Z,24.00
2022-12-04T16:37:39.838Z,23.45
2022-12-04T16:40:13.417Z,23.95
2022-12-04T16:42:45.347Z,20.77
2022-12-04T16:45:23.157Z,25.42
2022-12-04T16:47:55.206Z,23.13
2022-12-04T16:50:27.729Z,20.70
2022-12-04T16:53:01.059Z,21.73
2022-12-04T16:55:35.241Z,23.35
2022-12-04T16:58:08.312Z,27.13
2022-12-04T17:00:43.532Z,24.50
2022-12-04T17:03:18.763Z,23.70
2022-12-04T17:05:50.796Z,20.75
2022-12-04T17:08:24.141Z,20.00
2022-12-04T17:10:56.091Z,20.17
2022-12-04T17:13:28.024Z,20.75
2022-12-04T17:15:59.985Z,20.85
2022-12-04T17:18:31.941Z,20.70
2022-12-04T17:21:05.843Z,23.88
2022-12-04T17:23:40.142Z,19.73
2022-12-04T17:26:13.899Z,25.77
2022-12-04T17:28:45.904Z,20.90
2022-12-04T17:31:20.424Z,22.20
2022-12-04T17:33:53.238Z,21.23
2022-12-04T17:36:27.646Z,20.98
2022-12-04T17:39:02.056Z,22.35
2022-12-04T17:41:34.704Z,22.05
2022-12-04T17:44:06.727Z,20.52
2022-12-04T17:46:38.745Z,20.52
2022-12-04T17:49:10.694Z,24.27
2022-12-04T17:51:42.735Z,21.20
2022-12-04T17:54:16.423Z,21.15
2022-12-04T17:56:51.291Z,24.23
2022-12-04T17:59:26.833Z,22.38
2022-12-04T18:01:58.831Z,23.70
2022-12-04T18:04:30.769Z,22.30
2022-12-04T18:07:02.846Z,23.80
2022-12-04T18:09:37.396Z,24.05
2022-12-04T18:12:09.355Z,27.88
2022-12-04T18:14:41.480Z,24.50
2022-12-04T18:17:13.431Z,26.95
2022-12-04T18:19:45.330Z,25.40
2022-12-04T18:22:17.365Z,26.67
2022-12-04T18:24:50.731Z,29.80
2022-12-04T18:27:22.726Z,25.40
2022-12-04T18:29:54.919Z,29.05
2022-12-04T18:32:27.069Z,27.55
2022-12-04T18:34:59.010Z,25.60
2022-12-04T18:37:30.982Z,28.98
2022-12-04T18:40:07.033Z,27.65
2022-12-04T18:42:39.409Z,27.08
2022-12-04T18:45:11.845Z,25.08
2022-12-04T18:47:43.802Z,26.25
2022-12-04T18:50:17.361Z,25.83
2022-12-04T18:52:56.851Z,30.73
2022-12-04T18:55:35.138Z,24.15
2022-12-04T18:58:07.146Z,23.50
2022-12-04T19:00:39.132Z,23.65
2022-12-04T19:03:11.797Z,24.45
2022-12-04T19:05:48.648Z,29.38
2022-12-04T19:08:20.618Z,24.48
2022-12-04T19:10:54.029Z,23.38
2022-12-04T19:13:26.038Z,21.88
2022-12-04T19:15:57.955Z,22.30
2022-12-04T19:18:30.463Z,23.70
2022-12-04T19:21:04.869Z,25.10
2022-12-04T19:23:36.830Z,24.20
2022-12-04T19:26:10.263Z,23.60
2022-12-04T19:28:42.358Z,21.50
2022-12-04T19:31:15.666Z,20.83
2022-12-04T19:33:47.915Z,21.98
2022-12-04T19:36:20.107Z,23.27
2022-12-04T19:38:53.593Z,21.23
2022-12-04T19:41:30.073Z,22.67
2022-12-04T19:44:14.579Z,22.85
2022-12-04T19:46:54.524Z,21.67
2022-12-04T19:49:26.491Z,22.15
2022-12-04T19:51:58.440Z,21.30
2022-12-04T19:54:30.833Z,24.00
2022-12-04T19:57:04.232Z,26.77
2022-12-04T19:59:39.515Z,29.75
2022-12-04T20:02:14.334Z,30.63
2022-12-04T20:04:46.386Z,33.45
2022-12-04T20:07:18.777Z,27.10
2022-12-04T20:09:52.632Z,23.88
2022-12-04T20:12:26.224Z,24.90
2022-12-04T20:14:58.176Z,26.80
2022-12-04T20:17:31.449Z,28.02
2022-12-04T20:20:03.782Z,27.23
2022-12-04T20:22:36.467Z,25.58
2022-12-04T20:25:09.063Z,25.10
2022-12-04T20:27:42.378Z,21.70
2022-12-04T20:30:14.571Z,27.15
2022-12-04T20:32:46.531Z,31.33
2022-12-04T20:35:18.487Z,30.77
2022-12-04T20:37:50.407Z,25.65
2022-12-04T20:40:22.360Z,23.55
2022-12-04T20:42:55.651Z,22.20
2022-12-04T20:45:27.647Z,25.30
2022-12-04T20:47:59.600Z,23.17
2022-12-04T20:50:31.510Z,21.33
2022-12-04T20:53:03.497Z,27.70
2022-12-04T20:55:35.455Z,25.73
2022-12-04T20:58:08.774Z,24.90
2022-12-04T21:00:40.974Z,27.08
2022-12-04T21:03:13.112Z,23.77
2022-12-04T21:05:48.942Z,22.85
2022-12-04T21:08:40.812Z,26.75
2022-12-04T21:11:12.771Z,25.88
2022-12-04T21:14:04.620Z,30.60
2022-12-04T21:16:36.693Z,26.23
2022-12-04T21:19:11.259Z,26.42
2022-12-04T21:21:43.622Z,21.83
2022-12-04T21:24:18.378Z,22.63
2022-12-04T21:26:50.345Z,27.73
2022-12-04T21:29:23.795Z,25.50
2022-12-04T21:31:55.931Z,25.60
2022-12-04T21:34:28.074Z,23.75
2022-12-04T21:37:00.003Z,55.22
2022-12-04T21:39:32.725Z,26.52
2022-12-04T21:42:23.153Z,26.27
2022-12-04T21:44:56.515Z,41.10
2022-12-04T21:47:28.936Z,49.08
2022-12-04T21:50:01.095Z,23.70
2022-12-04T21:52:33.267Z,30.60
2022-12-04T21:55:05.861Z,27.05
2022-12-04T21:57:37.793Z,24.55
2022-12-04T22:00:12.655Z,25.00
2022-12-04T22:02:44.688Z,90.30
2022-12-04T22:05:16.958Z,41.22
2022-12-04T22:07:48.926Z,27.58
2022-12-04T22:10:20.891Z,26.48
2022-12-04T22:12:52.801Z,26.70
2022-12-04T22:15:26.103Z,26.95
2022-12-04T22:17:58.041Z,57.13
2022-12-04T22:20:29.981Z,24.88
2022-12-04T22:23:03.200Z,49.42
2022-12-04T22:25:35.525Z,67.55
2022-12-04T22:28:07.537Z,20.25
2022-12-04T22:30:40.854Z,33.10
2022-12-04T22:33:12.764Z,24.25
2022-12-04T22:35:44.966Z,23.25
2022-12-04T22:38:16.904Z,20.27
2022-12-04T22:40:48.860Z,22.77
2022-12-04T22:43:20.755Z,24.30
2022-12-04T22:45:54.047Z,22.35
2022-12-04T22:48:28.795Z,21.50
2022-12-04T22:51:02.413Z,26.65
2022-12-04T22:53:37.397Z,24.50
2022-12-04T22:56:11.673Z,25.48
2022-12-04T22:58:47.022Z,23.70
2022-12-04T23:01:22.012Z,23.45
2022-12-04T23:03:54.637Z,23.02
2022-12-04T23:06:29.296Z,22.52
2022-12-04T23:09:04.830Z,24.85
2022-12-04T23:11:37.054Z,22.33
2022-12-04T23:14:12.748Z,24.60
2022-12-04T23:16:46.616Z,23.35
2022-12-04T23:19:19.865Z,24.90
2022-12-04T23:21:56.833Z,20.67
2022-12-04T23:24:29.055Z,23.23
2022-12-04T23:27:01.093Z,22.73
2022-12-04T23:32:26.533Z,21.77
2022-12-04T23:34:58.435Z,21.83
2022-12-04T23:37:30.429Z,19.52
2022-12-04T23:40:02.332Z,21.33
2022-12-04T23:42:34.707Z,19.73
2022-12-04T23:45:07.882Z,19.90
2022-12-04T23:47:41.307Z,20.95
2022-12-04T23:50:13.204Z,22.25
2022-12-04T23:52:45.169Z,20.35
2022-12-04T23:55:17.221Z,20.25
2022-12-04T23:57:49.258Z,18.63
